Time;durP1;ratioP1;P1;durP2;ratioP2;P2;SDS_P1;SDS_P2;PMS_P1;PMS_P2;Temp;Humidity;BMP_temperature;BMP_pressure;BME280_temperature;BME280_humidity;BME280_pressure;Samples;Min_cycle;Max_cycle;Signal;HPM_P1;HPM_P2
2021/07/06 00:01:37;;;;;;;3.70;1.65;;;17.10;93.90;;;;;;5050630;28;20047;-81
2021/07/06 00:04:02;;;;;;;3.40;1.88;;;17.20;93.70;;;;;;5048443;28;20364;-82
2021/07/06 00:06:28;;;;;;;4.57;2.05;;;17.20;93.60;;;;;;5037631;28;20437;-81
2021/07/06 00:08:54;;;;;;;3.70;1.70;;;17.30;93.10;;;;;;5055436;28;20025;-82
2021/07/06 00:11:19;;;;;;;3.92;1.92;;;17.40;93.30;;;;;;5049003;28;20037;-81
2021/07/06 00:13:45;;;;;;;4.60;2.20;;;17.40;93.10;;;;;;5036851;28;20365;-82
2021/07/06 00:16:11;;;;;;;5.05;1.90;;;17.40;92.90;;;;;;5043272;28;20032;-81
2021/07/06 00:18:37;;;;;;;4.18;1.85;;;17.50;92.80;;;;;;5034539;28;20026;-81
2021/07/06 00:21:03;;;;;;;3.28;1.92;;;17.50;92.90;;;;;;5051099;28;20036;-81
2021/07/06 00:23:29;;;;;;;4.10;2.10;;;17.40;93.00;;;;;;5053602;28;20070;-81
2021/07/06 00:25:55;;;;;;;4.10;1.80;;;17.40;93.30;;;;;;5055767;28;20376;-81
2021/07/06 00:28:23;;;;;;;5.53;1.70;;;17.40;92.90;;;;;;5047278;28;20053;-81
2021/07/06 00:30:50;;;;;;;4.25;1.70;;;17.40;92.80;;;;;;5051413;28;20025;-82
2021/07/06 00:33:16;;;;;;;3.20;1.58;;;17.50;92.50;;;;;;5053245;28;20017;-81
2021/07/06 00:35:42;;;;;;;4.32;1.83;;;17.50;92.50;;;;;;5039397;28;20021;-81
2021/07/06 00:38:09;;;;;;;5.10;1.75;;;17.40;92.30;;;;;;5054219;28;20025;-81
2021/07/06 00:40:34;;;;;;;3.03;1.40;;;17.50;92.00;;;;;;5049979;28;20032;-81
2021/07/06 00:43:00;;;;;;;2.95;1.40;;;17.60;91.80;;;;;;5046671;28;20029;-81
2021/07/06 00:45:27;;;;;;;3.08;1.60;;;17.70;91.40;;;;;;5036016;28;20076;-81
2021/07/06 00:47:53;;;;;;;4.03;1.58;;;17.70;91.20;;;;;;5034359;28;20036;-81
2021/07/06 00:50:22;;;;;;;4.55;1.67;;;17.70;91.20;;;;;;5047006;28;20029;-81
2021/07/06 00:52:48;;;;;;;5.80;1.70;;;17.80;90.80;;;;;;5053050;28;20424;-81
2021/07/06 00:55:14;;;;;;;2.53;1.38;;;17.80;90.90;;;;;;5040265;28;20030;-81
2021/07/06 00:57:40;;;;;;;4.32;1.50;;;17.80;90.90;;;;;;5052346;28;20020;-80
2021/07/06 01:00:15;;;;;;;5.07;1.55;;;17.80;90.80;;;;;;5058627;28;20094;-81
2021/07/06 01:02:41;;;;;;;3.40;1.77;;;17.80;90.70;;;;;;5038963;28;20075;-81
2021/07/06 01:05:10;;;;;;;4.25;1.77;;;17.80;90.70;;;;;;5050817;28;20029;-81
2021/07/06 01:07:36;;;;;;;6.28;1.48;;;17.90;90.60;;;;;;5056781;28;20057;-80
2021/07/06 01:10:05;;;;;;;3.33;1.60;;;17.90;90.70;;;;;;5050645;28;20025;-81
2021/07/06 01:12:33;;;;;;;3.33;1.52;;;17.90;90.80;;;;;;5057809;28;20025;-81
2021/07/06 01:15:00;;;;;;;2.50;1.33;;;17.90;90.90;;;;;;5047887;28;20044;-80
2021/07/06 01:17:28;;;;;;;9.85;1.73;;;17.90;91.00;;;;;;5052740;28;20369;-81
2021/07/06 01:19:55;;;;;;;5.78;1.60;;;17.80;91.20;;;;;;5050104;28;20025;-81
2021/07/06 01:22:28;;;;;;;3.70;1.73;;;17.80;91.10;;;;;;5050880;28;20029;-81
2021/07/06 01:24:54;;;;;;;3.42;1.52;;;17.90;90.80;;;;;;5042926;28;20418;-81
2021/07/06 01:27:20;;;;;;;4.30;1.40;;;17.90;90.80;;;;;;5038549;28;20033;-81
2021/07/06 01:29:45;;;;;;;3.08;1.50;;;17.90;90.70;;;;;;5040232;28;20032;-81
2021/07/06 01:32:11;;;;;;;2.72;1.35;;;17.90;90.70;;;;;;5056666;28;20021;-81
2021/07/06 01:34:37;;;;;;;4.75;1.58;;;17.80;90.70;;;;;;5046899;28;20120;-81
2021/07/06 01:37:02;;;;;;;3.50;1.52;;;17.80;90.70;;;;;;5046876;28;20036;-80
2021/07/06 01:39:29;;;;;;;4.30;1.60;;;17.90;90.60;;;;;;5047389;28;20057;-80
2021/07/06 01:41:56;;;;;;;2.78;1.35;;;17.90;90.40;;;;;;5057243;28;20029;-80
2021/07/06 01:44:29;;;;;;;2.70;1.40;;;17.90;90.50;;;;;;5038337;28;20103;-80
2021/07/06 01:46:55;;;;;;;5.07;1.60;;;17.90;90.40;;;;;;5041862;28;20033;-80
2021/07/06 01:49:21;;;;;;;4.55;1.60;;;18.00;90.30;;;;;;5047065;28;20108;-82
2021/07/06 01:51:47;;;;;;;2.67;1.30;;;17.90;90.50;;;;;;5057482;28;20064;-82
2021/07/06 01:54:14;;;;;;;3.22;1.38;;;17.90;90.60;;;;;;5057385;28;20307;-82
2021/07/06 01:56:43;;;;;;;2.92;1.30;;;17.90;90.80;;;;;;5056451;28;20063;-83
2021/07/06 01:59:12;;;;;;;4.57;1.38;;;17.80;90.70;;;;;;5057959;28;20028;-82
2021/07/06 02:01:39;;;;;;;2.95;1.27;;;17.90;90.70;;;;;;5056845;28;20055;-82
2021/07/06 02:04:05;;;;;;;5.57;1.20;;;17.90;90.90;;;;;;5042658;28;20145;-82
2021/07/06 02:06:33;;;;;;;2.75;1.48;;;17.80;90.80;;;;;;5044815;28;20025;-81
2021/07/06 02:09:00;;;;;;;2.72;1.35;;;17.80;91.00;;;;;;5045745;28;20033;-81
2021/07/06 02:11:26;;;;;;;5.70;1.60;;;17.70;91.40;;;;;;5044001;28;20112;-81
2021/07/06 02:13:54;;;;;;;5.38;1.83;;;17.70;91.30;;;;;;5054571;28;20029;-81
2021/07/06 02:16:21;;;;;;;4.93;1.25;;;17.60;91.40;;;;;;5057358;28;20032;-81
2021/07/06 02:18:47;;;;;;;4.47;1.30;;;17.70;91.40;;;;;;5055671;28;20035;-81
2021/07/06 02:21:13;;;;;;;3.72;1.30;;;17.70;91.10;;;;;;5061527;22;20057;-82
2021/07/06 02:23:39;;;;;;;5.00;1.50;;;17.70;91.20;;;;;;5036884;28;20436;-81
2021/07/06 02:26:08;;;;;;;3.38;1.30;;;17.70;91.10;;;;;;5037529;28;20029;-82
2021/07/06 02:28:35;;;;;;;2.78;1.40;;;17.70;91.20;;;;;;5037093;28;20445;-80
2021/07/06 02:31:01;;;;;;;2.42;1.23;;;17.70;91.20;;;;;;5019232;28;20553;-80
2021/07/06 02:33:32;;;;;;;4.00;1.63;;;17.70;91.00;;;;;;5035556;28;20028;-81
2021/07/06 02:35:59;;;;;;;2.80;1.48;;;17.80;90.80;;;;;;5029212;28;20084;-80
2021/07/06 02:38:25;;;;;;;3.65;1.50;;;17.80;90.70;;;;;;5014818;28;20380;-80
2021/07/06 02:40:51;;;;;;;3.13;1.42;;;17.80;90.70;;;;;;5001338;28;20030;-80
2021/07/06 02:43:17;;;;;;;4.35;1.40;;;17.80;90.70;;;;;;5002401;28;20033;-80
2021/07/06 02:45:45;;;;;;;2.72;1.42;;;17.70;90.70;;;;;;5024892;28;20052;-82
2021/07/06 02:48:10;;;;;;;4.88;1.70;;;17.80;90.40;;;;;;5009473;28;20038;-81
2021/07/06 02:50:39;;;;;;;2.70;1.30;;;17.80;90.30;;;;;;5017240;28;20329;-81
2021/07/06 02:53:08;;;;;;;3.03;1.30;;;17.80;90.30;;;;;;5017265;28;20113;-80
2021/07/06 02:55:34;;;;;;;2.75;1.10;;;17.80;90.20;;;;;;5020705;28;20036;-80
2021/07/06 02:58:00;;;;;;;2.88;1.30;;;17.90;89.80;;;;;;4999261;28;20030;-80
2021/07/06 03:00:28;;;;;;;2.30;1.15;;;17.90;89.70;;;;;;5027976;28;20040;-79
2021/07/06 03:02:56;;;;;;;2.13;1.23;;;17.90;89.90;;;;;;5016632;28;20080;-80
2021/07/06 03:05:24;;;;;;;3.83;1.20;;;17.90;89.80;;;;;;5020294;28;20029;-80
2021/07/06 03:07:51;;;;;;;5.53;1.35;;;17.90;90.00;;;;;;5029311;28;20442;-80
2021/07/06 03:10:29;;;;;;;2.47;1.00;;;17.80;90.00;;;;;;5015517;28;20034;-80
2021/07/06 03:12:55;;;;;;;3.53;1.15;;;17.80;89.90;;;;;;5016342;28;20025;-80
2021/07/06 03:15:24;;;;;;;2.63;1.20;;;17.90;89.60;;;;;;4999332;28;20053;-80
2021/07/06 03:17:50;;;;;;;2.53;1.23;;;17.90;89.30;;;;;;4998335;28;20109;-80
2021/07/06 03:20:20;;;;;;;2.85;1.10;;;18.00;89.10;;;;;;4997611;28;20770;-80
2021/07/06 03:22:46;;;;;;;2.35;1.10;;;18.00;88.60;;;;;;5016258;28;20083;-80
2021/07/06 03:25:14;;;;;;;2.88;1.27;;;18.00;88.80;;;;;;5016289;28;20041;-80
2021/07/06 03:27:41;;;;;;;3.00;1.13;;;18.00;88.80;;;;;;5016519;28;20022;-80
2021/07/06 03:30:12;;;;;;;2.65;1.13;;;18.00;89.00;;;;;;5016946;28;20026;-80
2021/07/06 03:32:38;;;;;;;2.30;1.17;;;17.90;88.80;;;;;;4999603;28;20144;-81
2021/07/06 03:35:06;;;;;;;3.28;1.05;;;18.00;88.50;;;;;;5016903;28;20113;-80
2021/07/06 03:37:31;;;;;;;2.72;1.33;;;18.10;88.40;;;;;;5001349;28;20296;-80
2021/07/06 03:39:57;;;;;;;2.38;1.10;;;18.10;88.10;;;;;;5016299;28;20026;-80
2021/07/06 03:42:23;;;;;;;1.60;0.90;;;18.20;87.50;;;;;;5016772;28;20022;-80
2021/07/06 03:44:48;;;;;;;3.28;1.20;;;18.30;87.40;;;;;;4999664;28;20030;-80
2021/07/06 03:47:14;;;;;;;1.95;1.00;;;18.30;87.30;;;;;;5016031;28;20030;-80
2021/07/06 03:49:40;;;;;;;2.72;1.10;;;18.20;87.30;;;;;;5015261;28;20022;-80
2021/07/06 03:52:06;;;;;;;2.70;1.10;;;18.30;87.30;;;;;;5021960;28;20287;-80
2021/07/06 03:54:31;;;;;;;2.67;1.10;;;18.30;87.30;;;;;;5017714;28;20017;-80
2021/07/06 03:56:58;;;;;;;2.55;1.00;;;18.20;87.40;;;;;;5025410;28;20037;-80
2021/07/06 03:59:24;;;;;;;3.03;1.02;;;18.30;87.20;;;;;;5011071;28;20022;-80
2021/07/06 04:01:50;;;;;;;3.15;1.00;;;18.20;87.30;;;;;;5016262;28;20026;-81
2021/07/06 04:04:15;;;;;;;2.03;1.25;;;18.20;87.40;;;;;;5013629;28;20040;-80
2021/07/06 04:06:41;;;;;;;2.17;1.10;;;18.20;87.30;;;;;;5020812;28;20029;-80
2021/07/06 04:09:07;;;;;;;2.35;1.10;;;18.30;87.40;;;;;;5033311;28;20030;-80
2021/07/06 04:11:33;;;;;;;2.88;1.05;;;18.30;87.40;;;;;;5032498;28;20113;-81
2021/07/06 04:13:58;;;;;;;5.60;1.25;;;18.30;86.90;;;;;;5015426;28;20072;-80
2021/07/06 04:16:24;;;;;;;3.67;1.30;;;18.50;86.00;;;;;;5019526;28;20487;-80
2021/07/06 04:18:50;;;;;;;2.22;1.15;;;18.60;85.90;;;;;;5014995;28;20021;-81
2021/07/06 04:21:16;;;;;;;2.08;0.90;;;18.70;85.30;;;;;;5015453;28;20121;-80
2021/07/06 04:23:42;;;;;;;2.92;1.27;;;18.70;85.60;;;;;;5015145;28;20109;-81
2021/07/06 04:26:08;;;;;;;2.40;1.00;;;18.60;85.60;;;;;;4999079;28;20486;-81
2021/07/06 04:28:34;;;;;;;2.97;1.10;;;18.60;86.10;;;;;;5028981;28;20345;-81
2021/07/06 04:31:00;;;;;;;2.55;0.93;;;18.50;86.30;;;;;;5018626;28;20052;-80
2021/07/06 04:33:26;;;;;;;1.83;1.00;;;18.50;86.30;;;;;;5021517;28;20021;-79
2021/07/06 04:35:52;;;;;;;2.22;1.13;;;18.60;86.20;;;;;;5019923;28;20036;-80
2021/07/06 04:38:18;;;;;;;3.33;1.00;;;18.60;86.20;;;;;;5024070;28;20026;-80
2021/07/06 04:40:43;;;;;;;1.65;1.00;;;18.60;86.10;;;;;;5018707;28;20072;-80
2021/07/06 04:43:10;;;;;;;3.20;1.35;;;18.60;86.30;;;;;;5019213;28;20445;-80
2021/07/06 04:45:37;;;;;;;2.95;1.35;;;18.60;86.50;;;;;;5018123;28;20026;-80
2021/07/06 04:48:04;;;;;;;1.73;0.90;;;18.60;86.20;;;;;;5017927;28;20104;-80
2021/07/06 04:50:32;;;;;;;4.55;1.10;;;18.70;86.20;;;;;;5001373;28;20030;-80
2021/07/06 04:52:58;;;;;;;3.20;1.30;;;18.70;86.00;;;;;;5016859;28;20037;-80
2021/07/06 04:55:23;;;;;;;3.42;1.58;;;18.70;86.60;;;;;;5018767;28;20022;-80
2021/07/06 04:57:52;;;;;;;1.55;0.95;;;18.70;86.80;;;;;;5019043;28;20018;-80
2021/07/06 05:03:49;;;;;;;2.63;1.15;;;18.80;86.50;;;;;;5012609;28;20093;-80
2021/07/06 05:06:17;;;;;;;2.50;1.27;;;19.00;86.00;;;;;;5018046;28;20030;-79
2021/07/06 05:08:43;;;;;;;2.20;1.10;;;19.20;86.10;;;;;;5015780;28;20026;-79
2021/07/06 05:11:09;;;;;;;2.80;1.20;;;19.40;85.50;;;;;;4998219;28;20041;-79
2021/07/06 05:13:34;;;;;;;1.30;0.82;;;19.60;84.80;;;;;;5002891;28;20022;-81
2021/07/06 05:16:00;;;;;;;2.47;1.10;;;19.80;84.80;;;;;;5010277;28;20034;-81
2021/07/06 05:18:25;;;;;;;3.10;0.98;;;19.80;84.50;;;;;;5032621;28;20026;-81
2021/07/06 05:20:51;;;;;;;2.95;1.38;;;20.00;84.30;;;;;;5018018;28;20057;-81
2021/07/06 05:23:17;;;;;;;2.00;1.10;;;20.00;84.10;;;;;;5018814;28;20026;-80
2021/07/06 05:25:42;;;;;;;2.35;0.98;;;19.90;84.10;;;;;;5017730;28;20418;-80
2021/07/06 05:28:08;;;;;;;3.30;1.00;;;19.90;85.10;;;;;;5018636;28;20308;-80
2021/07/06 05:30:34;;;;;;;1.88;1.00;;;19.80;85.00;;;;;;5007701;28;20042;-80
2021/07/06 05:32:59;;;;;;;2.95;1.23;;;19.80;85.20;;;;;;5018550;28;20057;-80
2021/07/06 05:35:25;;;;;;;2.05;1.10;;;19.80;85.40;;;;;;5018409;28;20025;-80
2021/07/06 05:37:51;;;;;;;2.13;0.95;;;19.80;85.10;;;;;;5001375;28;20029;-80
2021/07/06 05:40:17;;;;;;;1.85;0.90;;;19.90;84.80;;;;;;5000120;28;20048;-80
2021/07/06 05:42:43;;;;;;;1.73;0.95;;;19.90;84.90;;;;;;5018327;28;20030;-80
2021/07/06 05:45:10;;;;;;;3.13;1.13;;;20.00;84.70;;;;;;5018281;28;20037;-80
2021/07/06 05:47:38;;;;;;;2.67;0.90;;;20.10;84.20;;;;;;5016617;28;20045;-80
2021/07/06 05:50:09;;;;;;;2.17;1.20;;;20.00;84.70;;;;;;4999461;28;20033;-80
2021/07/06 05:52:35;;;;;;;2.83;1.45;;;19.90;84.90;;;;;;5016954;28;20326;-80
2021/07/06 05:55:02;;;;;;;2.20;1.13;;;19.70;85.40;;;;;;5000390;28;20036;-80
2021/07/06 05:57:31;;;;;;;1.52;0.90;;;19.60;85.90;;;;;;5001982;28;20029;-80
2021/07/06 05:59:57;;;;;;;1.73;0.93;;;19.50;86.30;;;;;;5000136;28;20109;-80
2021/07/06 06:02:23;;;;;;;2.25;1.15;;;19.50;86.50;;;;;;5005683;28;20105;-79
2021/07/06 06:04:49;;;;;;;1.65;0.98;;;19.60;86.30;;;;;;5018107;28;20030;-80
2021/07/06 06:07:14;;;;;;;3.25;1.00;;;19.80;85.90;;;;;;5018075;28;20018;-80
2021/07/06 06:09:40;;;;;;;2.33;1.13;;;19.90;86.30;;;;;;5017840;28;20025;-80
2021/07/06 06:12:06;;;;;;;2.90;1.17;;;20.00;85.90;;;;;;5017274;28;20034;-80
2021/07/06 06:14:31;;;;;;;3.30;1.00;;;20.10;86.10;;;;;;5016956;28;20033;-80
2021/07/06 06:16:57;;;;;;;1.98;0.88;;;20.20;84.90;;;;;;5016490;28;20457;-80
2021/07/06 06:19:23;;;;;;;4.72;1.10;;;20.30;85.60;;;;;;5017759;28;20041;-80
2021/07/06 06:21:48;;;;;;;1.80;0.98;;;20.30;85.80;;;;;;5017474;28;20070;-80
2021/07/06 06:24:14;;;;;;;1.98;1.05;;;20.40;85.30;;;;;;5000316;28;20406;-80
2021/07/06 06:26:42;;;;;;;2.03;1.08;;;20.60;85.10;;;;;;5017700;28;20120;-80
2021/07/06 06:29:08;;;;;;;1.33;0.80;;;20.70;85.10;;;;;;5017575;28;20033;-80
2021/07/06 06:31:33;;;;;;;1.73;1.00;;;20.90;85.00;;;;;;5016084;28;20318;-80
2021/07/06 06:33:59;;;;;;;2.10;1.08;;;21.00;84.70;;;;;;5016827;28;20303;-81
2021/07/06 06:36:24;;;;;;;2.60;1.05;;;21.20;85.10;;;;;;5016876;28;20026;-80
2021/07/06 06:38:50;;;;;;;1.90;0.95;;;21.30;83.80;;;;;;5017354;28;20068;-80
2021/07/06 06:41:16;;;;;;;2.50;1.10;;;21.50;84.20;;;;;;5017478;28;20064;-80
2021/07/06 06:43:41;;;;;;;2.53;1.10;;;21.60;83.30;;;;;;5016984;28;20029;-81
2021/07/06 06:46:07;;;;;;;2.00;0.98;;;21.70;81.30;;;;;;5015708;28;20041;-80
2021/07/06 06:48:33;;;;;;;4.35;1.20;;;21.70;80.80;;;;;;4999575;28;20034;-80
2021/07/06 06:50:58;;;;;;;1.88;0.95;;;22.00;81.10;;;;;;5017299;28;20037;-80
2021/07/06 06:53:24;;;;;;;2.25;1.00;;;22.30;80.80;;;;;;4999272;28;20296;-80
2021/07/06 06:55:50;;;;;;;2.50;1.15;;;22.50;80.20;;;;;;5016714;28;20018;-80
2021/07/06 06:58:15;;;;;;;2.15;1.13;;;22.70;80.70;;;;;;5017119;28;20371;-80
2021/07/06 07:00:41;;;;;;;2.80;1.23;;;22.80;79.10;;;;;;5015870;28;20025;-81
2021/07/06 07:03:07;;;;;;;2.47;1.10;;;22.90;79.70;;;;;;4999309;28;20113;-80
2021/07/06 07:05:33;;;;;;;2.45;1.00;;;23.00;78.40;;;;;;5016726;28;20038;-80
2021/07/06 07:07:58;;;;;;;3.03;0.88;;;23.20;78.60;;;;;;5017089;28;20065;-80
2021/07/06 07:10:26;;;;;;;1.52;0.90;;;23.70;78.50;;;;;;5016925;28;20034;-81
2021/07/06 07:12:54;;;;;;;2.35;1.00;;;24.30;77.00;;;;;;5016570;28;20429;-80
2021/07/06 07:15:20;;;;;;;5.30;1.30;;;24.70;76.40;;;;;;5015741;28;20026;-80
2021/07/06 07:17:46;;;;;;;2.30;1.10;;;24.50;74.60;;;;;;4999057;28;20391;-80
2021/07/06 07:20:12;;;;;;;1.88;0.88;;;24.20;75.30;;;;;;5016746;28;20049;-81
2021/07/06 07:22:39;;;;;;;2.20;1.05;;;24.30;76.30;;;;;;5016789;28;20105;-80
2021/07/06 07:25:05;;;;;;;1.70;1.00;;;24.60;75.90;;;;;;5016660;28;20025;-81
2021/07/06 07:27:31;;;;;;;1.23;0.80;;;25.20;74.60;;;;;;5016357;28;20030;-80
2021/07/06 07:29:57;;;;;;;2.95;0.98;;;25.60;72.90;;;;;;4999151;28;20029;-80
2021/07/06 07:32:23;;;;;;;2.05;0.90;;;25.60;71.90;;;;;;5014918;28;20028;-80
2021/07/06 07:34:49;;;;;;;2.15;0.95;;;25.30;72.90;;;;;;5016238;28;20108;-80
2021/07/06 07:37:16;;;;;;;2.15;0.80;;;25.00;73.20;;;;;;5016497;28;20423;-80
2021/07/06 07:39:44;;;;;;;1.85;0.80;;;25.10;74.20;;;;;;5016619;28;20172;-80
2021/07/06 07:42:10;;;;;;;1.73;0.90;;;25.40;74.50;;;;;;5016253;28;20025;-80
2021/07/06 07:44:36;;;;;;;1.45;0.80;;;26.10;72.20;;;;;;5016121;28;20033;-81
2021/07/06 07:47:02;;;;;;;5.20;1.00;;;26.20;71.40;;;;;;5015171;28;20334;-80
2021/07/06 07:49:27;;;;;;;3.42;0.90;;;26.20;72.10;;;;;;4998921;28;20026;-80
2021/07/06 07:51:53;;;;;;;1.70;0.80;;;25.90;72.50;;;;;;4999005;28;20362;-81
2021/07/06 07:54:19;;;;;;;2.28;1.00;;;26.10;75.10;;;;;;4998561;28;20030;-81
2021/07/06 07:56:45;;;;;;;2.38;1.10;;;26.30;71.80;;;;;;4998558;28;20493;-80
2021/07/06 07:59:11;;;;;;;1.45;0.80;;;26.60;74.10;;;;;;5016309;28;20076;-80
2021/07/06 08:01:37;;;;;;;1.45;0.85;;;26.90;71.80;;;;;;4997508;28;20382;-79
2021/07/06 08:04:06;;;;;;;1.90;0.80;;;27.30;70.90;;;;;;5014708;28;20304;-79
2021/07/06 08:06:31;;;;;;;2.47;1.02;;;27.30;69.60;;;;;;4998701;28;20030;-79
2021/07/06 08:08:57;;;;;;;3.03;0.80;;;27.70;69.20;;;;;;5016210;28;20029;-82
2021/07/06 08:11:23;;;;;;;1.83;0.80;;;28.40;69.40;;;;;;5016140;28;20030;-81
2021/07/06 08:13:49;;;;;;;2.40;0.80;;;29.00;68.00;;;;;;4998386;28;20038;-81
2021/07/06 08:16:14;;;;;;;1.25;0.73;;;29.90;65.40;;;;;;4997777;28;20287;-81
2021/07/06 08:18:40;;;;;;;1.10;0.70;;;30.80;63.30;;;;;;5016183;28;20411;-81
2021/07/06 08:21:06;;;;;;;1.25;0.70;;;31.40;60.30;;;;;;4995294;28;20053;-81
2021/07/06 08:23:32;;;;;;;1.80;0.77;;;31.40;59.30;;;;;;4996322;28;20435;-80
2021/07/06 08:25:58;;;;;;;2.53;0.52;;;31.50;60.60;;;;;;4996277;28;20580;-80
2021/07/06 08:28:26;;;;;;;1.52;0.70;;;31.80;59.20;;;;;;4995716;28;20041;-80
2021/07/06 08:30:53;;;;;;;1.67;0.70;;;32.00;59.70;;;;;;4994482;28;20023;-81
2021/07/06 08:33:19;;;;;;;1.75;0.90;;;31.60;61.30;;;;;;4996107;28;20033;-81
2021/07/06 08:35:45;;;;;;;1.80;0.75;;;31.60;59.90;;;;;;4995976;28;20026;-80
2021/07/06 08:38:13;;;;;;;1.70;0.80;;;31.10;61.10;;;;;;4996233;28;20420;-80
2021/07/06 08:40:42;;;;;;;1.83;0.68;;;29.80;61.00;;;;;;4995973;28;20176;-80
2021/07/06 08:43:07;;;;;;;1.98;0.95;;;29.00;63.20;;;;;;4995172;28;20061;-80
2021/07/06 08:45:34;;;;;;;1.05;0.60;;;29.20;64.40;;;;;;4994529;28;20038;-80
2021/07/06 08:47:59;;;;;;;2.58;1.10;;;29.70;63.90;;;;;;4996346;28;20022;-80
2021/07/06 08:50:27;;;;;;;2.22;1.00;;;30.30;64.30;;;;;;4995730;28;20423;-80
2021/07/06 08:52:53;;;;;;;2.00;1.02;;;29.70;65.60;;;;;;4996135;28;20040;-80
2021/07/06 08:55:20;;;;;;;2.45;1.25;;;28.20;68.10;;;;;;4995784;28;20037;-80
2021/07/06 08:57:47;;;;;;;3.10;1.42;;;28.00;68.80;;;;;;4996089;28;20018;-80
2021/07/06 09:00:15;;;;;;;2.83;1.20;;;27.70;70.90;;;;;;4994126;28;20027;-80
2021/07/06 09:02:41;;;;;;;3.50;1.20;;;27.50;71.70;;;;;;4994656;28;20026;-80
2021/07/06 09:05:27;;;;;;;5.05;1.20;;;27.70;73.10;;;;;;4995455;28;20491;-80
2021/07/06 09:07:53;;;;;;;2.47;1.10;;;28.60;69.00;;;;;;4995910;28;20490;-80
2021/07/06 09:10:21;;;;;;;2.28;1.05;;;29.00;66.60;;;;;;4995643;28;20030;-80
2021/07/06 09:12:48;;;;;;;3.30;1.30;;;28.40;68.00;;;;;;4995959;28;20025;-80
2021/07/06 09:15:33;;;;;;;3.22;1.40;;;28.00;68.30;;;;;;4994736;28;20415;-81
2021/07/06 09:18:31;;;;;;;5.45;1.30;;;27.70;69.40;;;;;;4999280;28;20026;-80
2021/07/06 09:21:00;;;;;;;2.50;1.23;;;27.30;71.50;;;;;;5007034;28;20050;-80
2021/07/06 09:23:29;;;;;;;6.20;1.33;;;27.40;71.60;;;;;;5001261;28;20552;-79
2021/07/06 09:26:22;;;;;;;5.00;1.52;;;27.60;71.30;;;;;;5017540;28;20058;-80
2021/07/06 09:28:49;;;;;;;2.85;1.30;;;27.70;69.90;;;;;;5000896;28;20331;-81
2021/07/06 09:31:26;;;;;;;3.92;1.50;;;27.60;71.50;;;;;;5016175;28;20026;-80
2021/07/06 09:34:07;;;;;;;3.03;1.50;;;28.00;70.50;;;;;;5003100;28;20359;-80
2021/07/06 09:36:45;;;;;;;3.47;1.60;;;28.20;69.30;;;;;;5018834;28;20029;-80
2021/07/06 09:39:22;;;;;;;3.83;1.40;;;28.00;69.30;;;;;;5000538;28;20045;-80
2021/07/06 09:42:01;;;;;;;3.65;1.70;;;27.50;70.70;;;;;;5018061;28;20113;-79
2021/07/06 09:44:31;;;;;;;2.92;1.48;;;26.80;70.00;;;;;;5000520;28;20121;-79
2021/07/06 09:47:07;;;;;;;5.00;2.40;;;26.10;71.50;;;;;;5017277;28;20311;-80
2021/07/06 09:49:34;;;;;;;6.80;1.73;;;25.90;72.50;;;;;;5018352;28;20432;-79
2021/07/06 09:52:13;;;;;;;4.88;2.88;;;25.60;73.10;;;;;;5018337;28;20031;-80
2021/07/06 09:54:45;;;;;;;4.10;2.25;;;25.70;74.60;;;;;;5017969;28;20018;-79
2021/07/06 10:00:14;;;;;;;4.95;2.72;;;25.10;75.70;;;;;;5018217;28;20037;-80
2021/07/06 10:02:41;;;;;;;4.78;2.13;;;25.00;76.30;;;;;;5017733;28;20310;-80
2021/07/06 10:05:13;;;;;;;4.60;2.30;;;25.20;76.00;;;;;;5018140;28;20022;-80
2021/07/06 10:07:40;;;;;;;3.78;1.60;;;25.40;76.00;;;;;;5018143;28;20025;-80
2021/07/06 10:10:12;;;;;;;4.05;1.88;;;25.90;75.80;;;;;;5000562;28;20029;-80
2021/07/06 10:12:40;;;;;;;4.43;2.10;;;26.40;75.00;;;;;;5017672;28;20485;-81
2021/07/06 10:15:09;;;;;;;2.72;1.60;;;26.90;72.90;;;;;;5017741;28;20444;-80
2021/07/06 10:17:36;;;;;;;3.78;1.70;;;26.40;73.10;;;;;;4999124;28;20029;-80
2021/07/06 10:20:04;;;;;;;3.60;1.80;;;26.10;74.60;;;;;;5017658;28;20101;-80
2021/07/06 10:22:30;;;;;;;3.45;2.00;;;25.50;75.50;;;;;;5017777;28;20034;-80
2021/07/06 10:25:03;;;;;;;6.07;1.90;;;25.20;77.50;;;;;;5017297;28;20110;-80
2021/07/06 10:27:32;;;;;;;6.97;2.05;;;25.30;76.50;;;;;;5016711;28;20323;-80
2021/07/06 10:30:17;;;;;;;4.65;1.80;;;25.00;76.90;;;;;;5016258;28;20065;-80
2021/07/06 10:32:45;;;;;;;3.92;2.00;;;24.90;77.80;;;;;;5016602;28;20041;-81
2021/07/06 10:35:13;;;;;;;3.35;1.80;;;25.30;76.90;;;;;;5017279;28;20295;-81
2021/07/06 10:37:40;;;;;;;2.78;1.35;;;25.90;76.30;;;;;;5003312;28;20034;-80
2021/07/06 10:40:23;;;;;;;5.10;2.03;;;27.10;72.50;;;;;;4999583;28;20034;-81
2021/07/06 10:42:51;;;;;;;6.22;2.13;;;27.20;71.70;;;;;;4999453;28;20056;-80
2021/07/06 10:45:25;;;;;;;3.90;2.00;;;27.90;72.00;;;;;;5015289;28;20032;-81
2021/07/06 10:47:52;;;;;;;4.20;1.88;;;27.80;72.60;;;;;;5016692;28;20113;-80
2021/07/06 10:50:30;;;;;;;5.47;2.00;;;27.30;73.10;;;;;;5016899;28;20117;-80
2021/07/06 10:53:14;;;;;;;3.33;1.85;;;26.90;74.70;;;;;;5014850;28;20026;-79
2021/07/06 10:55:41;;;;;;;4.30;1.90;;;26.60;76.00;;;;;;5016593;28;20029;-79
2021/07/06 10:58:07;;;;;;;4.43;2.00;;;26.40;75.80;;;;;;4999290;28;20117;-80
2021/07/06 11:00:43;;;;;;;5.00;1.90;;;26.10;76.90;;;;;;5014085;28;20100;-79
2021/07/06 11:03:14;;;;;;;3.67;1.95;;;26.10;76.40;;;;;;4997820;28;20124;-81
2021/07/06 11:05:40;;;;;;;4.47;2.00;;;25.60;77.30;;;;;;4999328;28;20040;-81
2021/07/06 11:08:06;;;;;;;4.53;1.90;;;25.60;78.50;;;;;;5015946;28;20113;-81
2021/07/06 11:10:36;;;;;;;3.83;1.95;;;26.00;78.60;;;;;;5016474;28;20042;-81
2021/07/06 11:13:12;;;;;;;5.70;2.00;;;26.80;74.90;;;;;;5016648;28;20026;-81
2021/07/06 11:15:38;;;;;;;4.20;2.25;;;26.60;75.00;;;;;;5014869;28;20100;-80
2021/07/06 11:18:05;;;;;;;3.35;1.77;;;26.30;76.60;;;;;;4999324;28;20065;-80
2021/07/06 11:20:43;;;;;;;7.85;2.30;;;25.70;77.10;;;;;;5016714;28;20042;-81
2021/07/06 11:23:33;;;;;;;4.53;2.08;;;25.30;80.00;;;;;;5016211;28;20036;-81
2021/07/06 11:26:05;;;;;;;3.40;1.70;;;25.00;80.80;;;;;;4999104;28;20040;-80
2021/07/06 11:28:31;;;;;;;3.47;1.80;;;24.70;81.30;;;;;;5016407;28;20441;-80
2021/07/06 11:30:58;;;;;;;3.63;1.95;;;24.70;81.80;;;;;;4999642;28;20038;-81
2021/07/06 11:33:30;;;;;;;3.92;1.98;;;24.80;81.30;;;;;;5015645;28;20033;-81
2021/07/06 11:36:00;;;;;;;4.35;2.05;;;24.50;82.40;;;;;;4998800;28;20030;-80
2021/07/06 11:38:46;;;;;;;4.05;1.85;;;24.40;82.10;;;;;;5015628;28;20030;-81
2021/07/06 11:41:14;;;;;;;3.25;1.80;;;24.10;83.60;;;;;;5010780;28;20084;-80
2021/07/06 11:43:41;;;;;;;3.42;1.75;;;24.20;82.60;;;;;;5015966;28;20053;-81
2021/07/06 11:46:17;;;;;;;6.85;1.80;;;24.30;82.60;;;;;;5014985;28;20037;-80
2021/07/06 11:48:47;;;;;;;3.72;1.80;;;24.20;83.10;;;;;;4998570;28;20109;-80
2021/07/06 11:51:15;;;;;;;3.25;1.60;;;24.20;83.50;;;;;;5016343;28;20050;-80
2021/07/06 11:53:46;;;;;;;3.08;1.50;;;24.30;83.40;;;;;;5015929;28;20113;-81
2021/07/06 11:56:13;;;;;;;4.22;1.58;;;24.40;83.80;;;;;;5015725;28;20022;-80
2021/07/06 11:58:39;;;;;;;3.65;1.73;;;24.50;82.70;;;;;;4998903;28;20469;-80
2021/07/06 12:01:10;;;;;;;3.63;1.75;;;24.20;82.80;;;;;;5014252;28;20532;-81
2021/07/06 12:03:37;;;;;;;6.10;2.10;;;24.00;83.80;;;;;;5015377;28;20108;-81
2021/07/06 12:06:05;;;;;;;3.17;1.67;;;23.90;84.20;;;;;;5015793;28;20296;-80
2021/07/06 12:08:36;;;;;;;4.80;1.67;;;23.90;84.40;;;;;;4998555;28;20026;-81
2021/07/06 12:11:09;;;;;;;3.05;1.50;;;23.80;83.80;;;;;;4998110;28;20033;-80
2021/07/06 12:13:41;;;;;;;3.35;1.90;;;23.60;85.10;;;;;;4998076;28;20445;-80
2021/07/06 12:16:14;;;;;;;2.72;1.45;;;23.80;84.30;;;;;;5014431;28;20022;-80
2021/07/06 12:18:58;;;;;;;3.58;1.70;;;23.80;84.10;;;;;;5015535;28;20026;-80
2021/07/06 12:21:32;;;;;;;3.23;1.77;;;23.80;84.30;;;;;;5015010;28;20058;-82
2021/07/06 12:24:03;;;;;;;3.70;1.65;;;24.20;83.70;;;;;;4998383;28;20033;-81
2021/07/06 12:26:29;;;;;;;4.28;1.83;;;24.40;83.60;;;;;;5015132;28;20066;-81
2021/07/06 12:28:55;;;;;;;3.92;1.80;;;24.70;82.50;;;;;;5015104;28;20064;-81
2021/07/06 12:31:25;;;;;;;5.28;1.75;;;25.00;82.20;;;;;;5013966;28;20099;-81
2021/07/06 12:34:20;;;;;;;4.22;1.75;;;25.30;79.90;;;;;;4997989;28;20030;-81
2021/07/06 12:36:53;;;;;;;4.15;2.00;;;25.10;80.00;;;;;;4985951;28;20066;-81
2021/07/06 12:39:21;;;;;;;5.75;2.17;;;24.50;81.50;;;;;;5013798;28;20030;-81
2021/07/06 12:41:48;;;;;;;7.55;2.58;;;23.90;83.50;;;;;;5014461;28;20374;-81
2021/07/06 12:44:18;;;;;;;2.83;1.70;;;23.80;83.90;;;;;;5013704;28;20034;-81
2021/07/06 12:46:43;;;;;;;3.90;2.17;;;23.80;84.10;;;;;;5013075;28;20022;-81
2021/07/06 12:49:09;;;;;;;5.05;3.15;;;24.20;84.30;;;;;;5015284;28;20026;-81
2021/07/06 12:51:35;;;;;;;12.10;2.30;;;24.80;83.80;;;;;;5018498;28;20033;-81
2021/07/06 12:54:05;;;;;;;3.78;1.90;;;25.40;79.90;;;;;;5018926;28;20050;-81
2021/07/06 12:56:33;;;;;;;4.40;1.88;;;25.40;79.40;;;;;;5016134;28;20109;-81
2021/07/06 12:59:23;;;;;;;5.10;1.85;;;25.40;78.60;;;;;;5019242;28;20037;-82